Time;durP1;ratioP1;P1;durP2;ratioP2;P2;SDS_P1;SDS_P2;PMS_P1;PMS_P2;Temp;Humidity;BMP_temperature;BMP_pressure;BME280_temperature;BME280_humidity;BME280_pressure;Samples;Min_cycle;Max_cycle;Signal;HPM_P1;HPM_P2
2022/12/09 00:02:18;;;;;;;65.45;36.58;;;;;;;3.58;88.09;100718.09;5062719;28;20036;-44
2022/12/09 00:04:44;;;;;;;32.33;21.20;;;;;;;3.56;87.87;100719.69;5061030;28;20063;-43
2022/12/09 00:07:09;;;;;;;24.95;19.48;;;;;;;3.59;87.58;100718.19;5063697;28;20064;-42
2022/12/09 00:09:35;;;;;;;27.48;19.27;;;;;;;3.57;87.94;100722.31;5061769;28;20078;-44
2022/12/09 00:12:00;;;;;;;25.40;18.85;;;;;;;3.57;87.57;100717.22;5062827;28;20040;-45
2022/12/09 00:14:25;;;;;;;25.17;18.45;;;;;;;3.57;87.77;100723.97;5061489;28;20033;-46
2022/12/09 00:16:51;;;;;;;25.05;16.73;;;;;;;3.59;87.93;100715.66;5063095;28;20028;-47
2022/12/09 00:19:16;;;;;;;23.65;17.85;;;;;;;3.60;88.11;100714.84;5062058;28;20071;-46
2022/12/09 00:21:42;;;;;;;22.33;17.50;;;;;;;3.61;87.91;100716.59;5062127;28;20413;-41
2022/12/09 00:24:10;;;;;;;22.50;16.98;;;;;;;3.61;87.69;100715.72;5061928;28;20157;-47
2022/12/09 00:26:36;;;;;;;29.08;18.95;;;;;;;3.56;87.82;100714.59;5061400;28;20036;-44
2022/12/09 00:29:02;;;;;;;25.90;18.65;;;;;;;3.56;87.90;100712.06;5062526;28;20363;-46
2022/12/09 00:31:31;;;;;;;25.88;17.80;;;;;;;3.63;87.93;100715.00;5060508;28;20059;-44
2022/12/09 00:33:58;;;;;;;24.02;17.52;;;;;;;3.63;88.14;100711.59;5063011;28;20107;-46
2022/12/09 00:36:25;;;;;;;23.05;17.58;;;;;;;3.65;88.48;100718.53;5060555;28;20036;-47
2022/12/09 00:38:52;;;;;;;24.20;18.17;;;;;;;3.61;87.65;100716.59;5060290;28;20044;-45
2022/12/09 00:41:17;;;;;;;26.08;19.05;;;;;;;3.64;87.23;100718.44;5063071;28;20513;-41
2022/12/09 00:43:43;;;;;;;26.83;18.10;;;;;;;3.60;87.33;100719.06;5062469;28;20063;-47
2022/12/09 00:46:10;;;;;;;27.02;18.08;;;;;;;3.54;87.83;100718.75;5061609;28;20036;-41
2022/12/09 00:48:38;;;;;;;29.73;19.27;;;;;;;3.54;87.83;100719.63;5062068;28;20064;-44
2022/12/09 00:51:06;;;;;;;23.80;18.27;;;;;;;3.54;88.18;100719.63;5064007;28;20048;-45
2022/12/09 00:53:31;;;;;;;23.67;18.42;;;;;;;3.53;88.30;100720.41;5060340;28;20048;-47
2022/12/09 00:55:57;;;;;;;25.58;18.77;;;;;;;3.59;88.42;100722.41;5060395;28;20020;-47
2022/12/09 00:58:22;;;;;;;26.42;19.30;;;;;;;3.56;87.92;100709.53;5058024;28;20481;-43
2022/12/09 01:00:48;;;;;;;25.77;19.38;;;;;;;3.61;87.84;100711.53;5062846;28;20454;-46
2022/12/09 01:03:16;;;;;;;27.23;19.85;;;;;;;3.54;88.04;100708.56;5062792;28;20358;-42
2022/12/09 01:05:41;;;;;;;27.35;19.90;;;;;;;3.53;87.82;100709.38;5060835;28;20150;-42
2022/12/09 01:08:08;;;;;;;26.95;19.30;;;;;;;3.56;88.63;100712.94;5060046;28;20133;-45
2022/12/09 01:10:34;;;;;;;29.77;21.33;;;;;;;3.58;88.50;100710.47;5077182;28;20035;-47
2022/12/09 01:12:59;;;;;;;27.55;19.95;;;;;;;3.60;88.48;100709.78;5062233;28;20091;-47
2022/12/09 01:15:25;;;;;;;31.77;21.15;;;;;;;3.57;87.94;100713.81;5061126;28;20033;-45
2022/12/09 01:17:50;;;;;;;27.77;20.35;;;;;;;3.62;87.93;100714.94;5058173;28;20036;-45
2022/12/09 01:20:16;;;;;;;30.35;21.25;;;;;;;3.61;88.09;100715.72;5062350;28;20028;-43
2022/12/09 01:22:41;;;;;;;31.55;22.25;;;;;;;3.55;87.70;100713.72;5059913;28;20042;-45
2022/12/09 01:25:07;;;;;;;31.83;21.52;;;;;;;3.53;87.97;100715.34;5058020;28;20051;-46
2022/12/09 01:27:32;;;;;;;33.63;22.92;;;;;;;3.53;87.87;100715.34;5061083;28;20052;-44
2022/12/09 01:29:57;;;;;;;34.60;23.98;;;;;;;3.49;88.05;100718.50;5060479;28;20044;-43
2022/12/09 01:32:23;;;;;;;38.17;23.88;;;;;;;3.50;88.33;100713.47;5058789;28;20032;-44
2022/12/09 01:34:48;;;;;;;38.47;24.02;;;;;;;3.50;88.30;100725.31;5060158;28;20033;-44
2022/12/09 01:37:14;;;;;;;37.17;24.67;;;;;;;3.52;88.78;100726.28;5061634;28;20480;-44
2022/12/09 01:39:39;;;;;;;33.20;24.38;;;;;;;3.56;88.30;100722.22;5061003;28;20040;-47
2022/12/09 01:42:05;;;;;;;41.10;25.50;;;;;;;3.54;88.55;100723.84;5060133;28;20111;-41
2022/12/09 01:44:32;;;;;;;39.85;24.35;;;;;;;3.50;88.81;100728.72;5060335;28;20139;-41
2022/12/09 01:47:00;;;;;;;33.63;24.77;;;;;;;3.56;88.96;100738.34;5061237;28;20040;-46
2022/12/09 01:49:41;;;;;;;36.65;24.02;;;;;;;3.60;88.88;100736.88;5058447;28;20110;-44
2022/12/09 01:52:12;;;;;;;39.67;24.45;;;;;;;3.58;88.38;100735.91;5061058;28;20107;-43
2022/12/09 01:54:40;;;;;;;36.97;24.73;;;;;;;3.57;88.39;100731.59;5060275;28;20481;-42
2022/12/09 01:57:06;;;;;;;41.50;25.80;;;;;;;3.58;88.68;100726.63;5059797;28;20023;-44
2022/12/09 01:59:32;;;;;;;44.47;26.08;;;;;;;3.55;88.81;100736.63;5059953;28;20527;-46
2022/12/09 02:01:59;;;;;;;45.85;26.65;;;;;;;3.54;88.25;100729.78;5062040;28;20025;-42
2022/12/09 02:04:28;;;;;;;48.45;28.17;;;;;;;3.57;88.62;100727.41;5059669;28;20409;-43
2022/12/09 02:06:54;;;;;;;46.93;27.83;;;;;;;3.55;88.82;100725.56;5059356;28;20433;-41
2022/12/09 02:09:19;;;;;;;52.25;28.45;;;;;;;3.56;88.22;100729.88;5060633;28;20035;-47
2022/12/09 02:12:27;;;;;;;42.70;27.02;;;;;;;3.63;88.77;100725.19;5061972;28;20353;-42
2022/12/09 02:14:55;;;;;;;48.13;28.48;;;;;;;3.58;88.72;100729.16;5054645;28;20501;-43
2022/12/09 02:18:00;;;;;;;50.05;27.95;;;;;;;3.70;88.53;100727.28;5060985;28;20020;-44
2022/12/09 02:20:56;;;;;;;52.65;28.15;;;;;;;3.66;88.87;100722.81;5044638;28;20025;-46
2022/12/09 02:23:39;;;;;;;44.72;25.58;;;;;;;3.70;88.75;100726.38;5026246;28;20182;-44
2022/12/09 02:26:24;;;;;;;44.60;26.25;;;;;;;3.73;88.97;100726.56;5060114;28;20041;-41
2022/12/09 02:29:10;;;;;;;43.63;26.58;;;;;;;3.73;89.05;100727.44;5064785;28;20055;-44
2022/12/09 02:31:43;;;;;;;46.75;25.92;;;;;;;3.72;89.10;100725.69;5064428;28;20473;-43
2022/12/09 02:34:16;;;;;;;44.45;26.38;;;;;;;3.73;88.86;100727.44;5065302;28;20083;-41
2022/12/09 02:37:30;;;;;;;41.08;26.73;;;;;;;3.80;89.00;100731.16;5063709;28;20033;-46
2022/12/09 02:40:04;;;;;;;52.40;26.58;;;;;;;3.76;88.88;100722.53;5041662;28;20048;-43
2022/12/09 02:42:33;;;;;;;45.00;27.35;;;;;;;3.74;89.08;100729.16;5044459;28;20437;-46
2022/12/09 02:45:01;;;;;;;51.42;27.00;;;;;;;3.70;88.91;100724.75;5051216;28;20140;-42
2022/12/09 02:47:31;;;;;;;43.50;27.52;;;;;;;3.73;89.42;100731.66;5063620;28;20055;-43
2022/12/09 02:50:03;;;;;;;46.08;26.95;;;;;;;3.71;89.09;100725.63;5062932;28;20030;-44
2022/12/09 02:52:30;;;;;;;48.58;26.95;;;;;;;3.74;89.09;100713.91;5063733;28;20033;-44
2022/12/09 02:54:59;;;;;;;50.80;28.38;;;;;;;3.72;89.41;100723.13;5063073;28;20493;-45
2022/12/09 02:57:28;;;;;;;48.63;27.20;;;;;;;3.78;89.38;100720.06;5063638;28;20455;-43
2022/12/09 02:59:54;;;;;;;44.35;26.63;;;;;;;3.73;89.25;100712.16;5062328;28;20282;-41
2022/12/09 03:02:32;;;;;;;51.10;28.40;;;;;;;3.82;89.31;100709.22;5065370;28;20043;-46
2022/12/09 03:05:19;;;;;;;54.83;27.90;;;;;;;3.85;89.30;100705.97;5063735;28;20462;-45
2022/12/09 03:08:12;;;;;;;50.00;28.15;;;;;;;3.89;89.18;100702.81;5061831;28;20033;-47
2022/12/09 03:10:50;;;;;;;50.67;28.27;;;;;;;3.81;89.33;100704.06;5062957;28;20032;-43
2022/12/09 03:13:43;;;;;;;52.67;28.73;;;;;;;3.83;89.68;100699.94;5064122;28;20066;-44
2022/12/09 03:16:15;;;;;;;53.45;28.88;;;;;;;3.77;89.48;100697.97;5060808;28;20071;-42
2022/12/09 03:18:46;;;;;;;55.35;29.67;;;;;;;3.72;89.32;100697.72;5063625;28;20076;-43
2022/12/09 03:21:16;;;;;;;55.78;31.35;;;;;;;3.75;89.43;100700.41;5063158;28;20029;-44
2022/12/09 03:23:44;;;;;;;55.45;31.25;;;;;;;3.76;89.60;100697.09;5063864;28;20025;-44
2022/12/09 03:26:12;;;;;;;58.35;30.83;;;;;;;3.75;89.79;100700.41;5064679;28;20515;-46
2022/12/09 03:28:42;;;;;;;56.30;31.40;;;;;;;3.77;89.63;100692.88;5063499;28;20025;-46
2022/12/09 03:31:15;;;;;;;52.17;30.35;;;;;;;3.78;89.52;100683.56;5062100;28;20468;-43
2022/12/09 03:33:42;;;;;;;56.75;30.77;;;;;;;3.79;89.67;100685.31;5063436;28;20107;-46
2022/12/09 03:36:11;;;;;;;56.55;30.35;;;;;;;3.75;89.51;100679.19;5064761;28;20040;-46
2022/12/09 03:38:40;;;;;;;62.90;32.40;;;;;;;3.79;89.56;100686.19;5060108;28;20493;-42
2022/12/09 03:41:15;;;;;;;67.03;32.30;;;;;;;3.77;89.75;100680.16;5063183;28;20037;-42
2022/12/09 03:43:47;;;;;;;63.67;31.90;;;;;;;3.79;89.46;100688.72;5063692;28;20098;-43
2022/12/09 03:46:12;;;;;;;60.05;31.65;;;;;;;3.77;89.54;100680.16;5061482;28;20032;-44
2022/12/09 03:48:38;;;;;;;64.78;32.60;;;;;;;3.78;89.40;100675.94;5061737;28;20043;-45
2022/12/09 03:51:13;;;;;;;61.90;31.80;;;;;;;3.78;89.23;100681.91;5063357;28;20141;-44
2022/12/09 03:53:42;;;;;;;57.67;31.13;;;;;;;3.78;89.58;100673.41;5061890;28;20461;-46
2022/12/09 03:56:24;;;;;;;66.65;32.60;;;;;;;3.82;89.56;100680.38;5062236;28;20149;-43
2022/12/09 03:58:53;;;;;;;67.13;32.63;;;;;;;3.78;89.72;100681.91;5059702;28;20038;-42
2022/12/09 04:01:20;;;;;;;70.60;32.92;;;;;;;3.81;89.32;100681.16;5063390;28;20029;-47
2022/12/09 04:03:51;;;;;;;62.83;31.77;;;;;;;3.84;89.54;100678.81;5063358;28;20031;-46
2022/12/09 04:06:17;;;;;;;62.50;32.65;;;;;;;3.80;89.03;100682.84;5060869;28;20064;-45
2022/12/09 04:08:42;;;;;;;63.50;33.25;;;;;;;3.78;89.18;100683.56;5061857;28;20500;-46
2022/12/09 04:11:08;;;;;;;60.38;33.35;;;;;;;3.82;89.12;100685.47;5062476;28;20028;-45
2022/12/09 04:13:33;;;;;;;64.03;33.15;;;;;;;3.81;89.27;100684.59;5062875;28;20029;-45
2022/12/09 04:15:58;;;;;;;64.03;33.72;;;;;;;3.79;89.61;100676.00;5062147;28;20351;-42
2022/12/09 04:18:24;;;;;;;69.93;34.53;;;;;;;3.73;89.74;100679.09;5061811;28;20086;-43
2022/12/09 04:20:49;;;;;;;68.50;34.90;;;;;;;3.69;90.14;100676.31;5063500;28;20572;-45
2022/12/09 04:23:15;;;;;;;65.82;34.05;;;;;;;3.71;89.88;100680.72;5061663;28;20032;-44
2022/12/09 04:25:40;;;;;;;70.05;33.10;;;;;;;3.70;90.00;100675.53;5062314;28;20084;-45
2022/12/09 04:28:05;;;;;;;60.42;32.38;;;;;;;3.68;89.83;100674.56;5062068;28;20036;-44
2022/12/09 04:30:31;;;;;;;60.85;32.70;;;;;;;3.70;90.11;100678.97;5059902;28;20036;-42
2022/12/09 04:32:58;;;;;;;63.40;32.80;;;;;;;3.73;90.04;100678.25;5062539;28;20098;-44
2022/12/09 04:35:24;;;;;;;60.80;33.70;;;;;;;3.69;90.22;100677.19;5061196;28;20361;-42
2022/12/09 04:37:49;;;;;;;62.92;33.88;;;;;;;3.73;90.17;100674.03;5063752;28;20038;-45
2022/12/09 04:40:15;;;;;;;60.05;33.88;;;;;;;3.69;90.12;100673.78;5061010;28;20401;-44
2022/12/09 04:42:40;;;;;;;64.82;34.63;;;;;;;3.69;90.19;100668.69;5060740;28;20460;-44
2022/12/09 04:45:06;;;;;;;68.78;35.60;;;;;;;3.66;90.35;100666.00;5058664;28;20493;-43
2022/12/09 04:47:32;;;;;;;61.42;33.50;;;;;;;3.72;90.19;100661.25;5061593;28;20035;-43
2022/12/09 04:49:58;;;;;;;54.45;33.40;;;;;;;3.69;90.10;100667.03;5062887;28;20034;-46
2022/12/09 04:52:23;;;;;;;63.03;33.45;;;;;;;3.70;89.88;100666.25;5062186;28;21092;-45
2022/12/09 04:54:49;;;;;;;61.03;34.50;;;;;;;3.66;89.68;100669.41;5061863;28;20457;-44
2022/12/09 04:57:14;;;;;;;56.47;34.33;;;;;;;3.69;89.55;100668.69;5062194;28;20035;-47
2022/12/09 04:59:40;;;;;;;57.78;33.88;;;;;;;3.69;89.84;100676.31;5061304;28;20035;-43
2022/12/09 05:02:05;;;;;;;63.53;35.25;;;;;;;3.73;90.28;100674.03;5060310;28;20064;-45
2022/12/09 05:04:31;;;;;;;60.03;33.78;;;;;;;3.71;90.26;100675.63;5061001;28;20082;-43
2022/12/09 05:06:56;;;;;;;58.65;34.33;;;;;;;3.71;90.02;100678.16;5062209;28;20036;-41
2022/12/09 05:09:21;;;;;;;60.70;33.40;;;;;;;3.72;90.01;100673.94;5062797;28;20111;-42
2022/12/09 05:11:47;;;;;;;62.88;34.13;;;;;;;3.73;90.38;100676.56;5061847;28;20036;-46
2022/12/09 05:14:13;;;;;;;63.42;33.95;;;;;;;3.72;90.51;100674.81;5059714;28;20028;-42
2022/12/09 05:16:38;;;;;;;61.13;35.17;;;;;;;3.75;90.30;100669.88;5060174;28;20187;-44
2022/12/09 05:19:04;;;;;;;61.17;33.20;;;;;;;3.74;90.07;100677.44;5061795;28;20157;-43
2022/12/09 05:21:29;;;;;;;68.70;34.55;;;;;;;3.73;90.70;100675.69;5059547;28;20017;-44
2022/12/09 05:23:55;;;;;;;64.75;36.17;;;;;;;3.69;90.74;100677.19;5062902;28;20086;-47
2022/12/09 05:26:22;;;;;;;64.93;35.42;;;;;;;3.70;90.68;100675.53;5058565;28;20498;-43
2022/12/09 05:28:48;;;;;;;64.03;34.60;;;;;;;3.71;90.87;100679.84;5060245;28;20032;-46
2022/12/09 05:31:18;;;;;;;62.55;35.08;;;;;;;3.69;90.90;100674.66;5060236;28;21046;-44
2022/12/09 05:33:44;;;;;;;62.42;35.00;;;;;;;3.67;90.83;100676.25;5057866;28;20024;-45
2022/12/09 05:36:11;;;;;;;62.72;35.30;;;;;;;3.70;90.30;100672.97;5059653;28;20028;-47
2022/12/09 05:38:36;;;;;;;62.38;34.05;;;;;;;3.71;90.08;100673.09;5062283;28;20111;-44
2022/12/09 05:41:01;;;;;;;61.78;34.33;;;;;;;3.71;90.11;100670.53;5058889;28;21649;-45
2022/12/09 05:43:27;;;;;;;61.40;34.75;;;;;;;3.74;89.94;100678.31;5055922;28;20053;-46
2022/12/09 05:45:52;;;;;;;61.03;34.25;;;;;;;3.78;89.71;100675.94;5057301;28;20040;-49
2022/12/09 05:48:18;;;;;;;66.88;35.20;;;;;;;3.78;89.82;100674.28;5057226;28;20033;-45
2022/12/09 05:50:43;;;;;;;61.78;34.40;;;;;;;3.78;89.87;100675.94;5058384;28;20033;-45
2022/12/09 05:53:08;;;;;;;65.30;34.85;;;;;;;3.81;89.77;100678.63;5059368;28;20040;-43
2022/12/09 05:55:34;;;;;;;65.28;34.80;;;;;;;3.77;89.92;100677.63;5058513;28;20485;-44
2022/12/09 05:57:59;;;;;;;66.68;34.33;;;;;;;3.74;89.71;100670.69;5061799;28;20068;-45
2022/12/09 06:00:24;;;;;;;64.35;34.05;;;;;;;3.73;89.60;100671.47;5061111;28;20025;-44
2022/12/09 06:02:50;;;;;;;65.95;35.60;;;;;;;3.74;90.14;100673.22;5067432;28;20436;-44
2022/12/09 06:05:15;;;;;;;65.03;35.05;;;;;;;3.75;89.69;100674.09;5065352;28;20647;-46
2022/12/09 06:07:41;;;;;;;67.07;35.00;;;;;;;3.74;89.64;100668.13;5066907;28;20098;-46
2022/12/09 06:10:06;;;;;;;66.38;35.05;;;;;;;3.77;89.57;100664.91;5064401;28;20670;-45
2022/12/09 06:12:32;;;;;;;62.13;34.92;;;;;;;3.77;89.94;100664.91;5062471;28;20032;-46
2022/12/09 06:14:58;;;;;;;63.80;35.42;;;;;;;3.75;89.71;100661.38;5063289;28;20024;-45
2022/12/09 06:17:23;;;;;;;62.25;34.95;;;;;;;3.76;89.60;100665.66;5062674;28;20031;-46
2022/12/09 06:19:48;;;;;;;61.63;34.17;;;;;;;3.77;89.71;100664.91;5063550;28;20126;-45
2022/12/09 06:22:14;;;;;;;63.72;36.05;;;;;;;3.80;89.32;100671.81;5065727;28;20056;-44
2022/12/09 06:24:39;;;;;;;62.13;34.80;;;;;;;3.75;89.34;100667.34;5065848;28;20404;-47
2022/12/09 06:27:05;;;;;;;66.72;34.38;;;;;;;3.78;89.17;100664.09;5065866;28;20041;-44
2022/12/09 06:29:30;;;;;;;64.22;35.13;;;;;;;3.79;89.28;100664.97;5064170;28;20040;-46
2022/12/09 06:31:56;;;;;;;62.50;35.08;;;;;;;3.81;88.79;100663.38;5066418;28;20025;-45
2022/12/09 06:34:21;;;;;;;62.55;34.50;;;;;;;3.80;88.58;100657.41;5066352;28;20112;-45
2022/12/09 06:36:46;;;;;;;62.00;33.58;;;;;;;3.81;88.47;100659.16;5067189;28;20082;-48
2022/12/09 06:39:12;;;;;;;60.30;33.35;;;;;;;3.80;88.34;100661.63;5065618;28;20051;-41
2022/12/09 06:41:41;;;;;;;57.58;33.90;;;;;;;3.81;88.59;100664.25;5067429;28;20052;-46
2022/12/09 06:44:07;;;;;;;61.72;33.40;;;;;;;3.79;88.53;100667.50;5064998;28;20551;-42
2022/12/09 06:46:32;;;;;;;59.55;32.83;;;;;;;3.75;88.60;100663.91;5066559;28;20036;-45
2022/12/09 06:48:58;;;;;;;59.13;33.67;;;;;;;3.79;88.50;100662.44;5066281;28;20029;-46
2022/12/09 06:51:24;;;;;;;59.08;33.17;;;;;;;3.81;88.25;100676.09;5062889;28;20071;-46
2022/12/09 06:53:49;;;;;;;59.85;32.40;;;;;;;3.76;87.96;100671.66;5068517;28;20651;-43
2022/12/09 06:56:15;;;;;;;56.17;32.05;;;;;;;3.76;87.90;100666.56;5064554;28;20115;-45
2022/12/09 06:58:42;;;;;;;54.75;31.50;;;;;;;3.79;88.29;100668.38;5063670;28;20424;-45
2022/12/09 07:01:18;;;;;;;60.58;32.30;;;;;;;3.81;88.24;100671.00;5062768;28;20028;-45
2022/12/09 07:03:49;;;;;;;61.65;32.03;;;;;;;3.78;88.17;100675.94;5066142;28;20400;-44
2022/12/09 07:06:39;;;;;;;62.03;31.70;;;;;;;3.75;88.46;100669.00;5062667;28;20021;-41
2022/12/09 07:09:11;;;;;;;60.88;32.90;;;;;;;3.77;88.26;100677.63;5068854;28;20032;-46
2022/12/09 07:11:37;;;;;;;58.92;33.08;;;;;;;3.76;87.72;100678.38;5063272;28;20031;-46
2022/12/09 07:14:03;;;;;;;60.15;32.15;;;;;;;3.73;87.59;100675.69;5066169;28;20044;-46
2022/12/09 07:16:29;;;;;;;58.40;32.88;;;;;;;3.70;87.58;100670.44;5061586;28;20635;-42
2022/12/09 07:18:54;;;;;;;56.50;32.33;;;;;;;3.65;87.71;100676.97;5065006;28;20032;-43
2022/12/09 07:21:21;;;;;;;59.40;32.97;;;;;;;3.61;87.51;100683.56;5061993;28;20061;-42
2022/12/09 07:23:46;;;;;;;56.67;31.27;;;;;;;3.63;87.45;100683.63;5063762;28;20353;-45
2022/12/09 07:26:12;;;;;;;55.65;30.92;;;;;;;3.54;87.13;100689.09;5065755;28;20036;-44
2022/12/09 07:28:41;;;;;;;50.25;30.55;;;;;;;3.52;86.56;100693.25;5063135;28;20111;-45
2022/12/09 07:31:16;;;;;;;52.17;30.63;;;;;;;3.56;86.70;100694.25;5063729;28;20024;-47
2022/12/09 07:33:41;;;;;;;49.83;29.58;;;;;;;3.47;85.61;100694.66;5062132;28;20461;-45
2022/12/09 07:36:07;;;;;;;51.72;30.90;;;;;;;3.40;85.59;100695.13;5063271;28;20047;-42
2022/12/09 07:38:32;;;;;;;50.58;30.27;;;;;;;3.41;85.82;100697.75;5064499;28;20116;-45
2022/12/09 07:41:04;;;;;;;51.50;29.50;;;;;;;3.42;85.90;100699.50;5064414;28;20031;-43
2022/12/09 07:43:32;;;;;;;49.50;28.98;;;;;;;3.40;85.83;100707.84;5063091;28;20053;-50
2022/12/09 07:45:58;;;;;;;49.88;30.83;;;;;;;3.41;85.58;100707.03;5063683;28;20063;-46
2022/12/09 07:48:23;;;;;;;52.38;29.55;;;;;;;3.38;85.59;100701.78;5064633;28;20068;-46
2022/12/09 07:50:48;;;;;;;53.80;30.45;;;;;;;3.32;85.40;100709.06;5063778;28;20095;-45
2022/12/09 07:53:14;;;;;;;50.30;29.55;;;;;;;3.33;85.79;100708.28;5063905;28;20155;-44
2022/12/09 07:55:39;;;;;;;51.42;30.98;;;;;;;3.31;85.63;100704.78;5063099;28;20111;-44
2022/12/09 07:58:04;;;;;;;49.40;29.60;;;;;;;3.31;85.85;100705.66;5063006;28;20115;-45
2022/12/09 08:00:30;;;;;;;48.25;29.50;;;;;;;3.30;85.79;100703.03;5062671;28;20063;-44
2022/12/09 08:02:55;;;;;;;50.45;30.20;;;;;;;3.29;85.64;100708.91;5063631;28;20064;-43
2022/12/09 08:05:20;;;;;;;47.45;28.65;;;;;;;3.25;85.70;100707.00;5064622;28;20600;-50
2022/12/09 08:07:46;;;;;;;52.97;31.55;;;;;;;3.21;85.82;100703.41;5064755;28;20021;-44
2022/12/09 08:10:11;;;;;;;50.00;29.65;;;;;;;3.25;86.31;100710.41;5064158;28;20469;-48
2022/12/09 08:12:36;;;;;;;51.45;30.58;;;;;;;3.22;85.93;100706.03;5064976;28;20085;-45
2022/12/09 08:15:02;;;;;;;50.38;29.10;;;;;;;3.24;85.68;100706.13;5063872;28;20039;-48
2022/12/09 08:17:29;;;;;;;47.28;29.40;;;;;;;3.17;85.77;100707.44;5064500;28;20036;-44
2022/12/09 08:19:54;;;;;;;50.20;28.90;;;;;;;3.20;85.49;100701.66;5062421;28;20032;-47
2022/12/09 08:22:20;;;;;;;48.38;30.20;;;;;;;3.17;85.65;100704.91;5063439;28;20131;-46
2022/12/09 08:24:45;;;;;;;47.47;29.63;;;;;;;3.13;85.57;100702.97;5064286;28;20033;-46
2022/12/09 08:27:11;;;;;;;47.28;29.42;;;;;;;3.16;85.61;100713.34;5063465;28;20119;-45
2022/12/09 08:29:36;;;;;;;49.58;29.25;;;;;;;3.10;85.69;100715.53;5062989;28;20040;-45
2022/12/09 08:32:01;;;;;;;47.28;28.98;;;;;;;3.13;85.68;100714.81;5064594;28;20040;-48
2022/12/09 08:34:27;;;;;;;45.08;28.45;;;;;;;3.11;85.74;100706.25;5064542;28;20036;-47
2022/12/09 08:36:52;;;;;;;45.65;28.27;;;;;;;3.09;85.59;100708.69;5064382;28;20077;-48
2022/12/09 08:39:17;;;;;;;47.40;28.42;;;;;;;3.05;85.92;100706.78;5063358;28;20040;-49
2022/12/09 08:41:43;;;;;;;44.42;28.60;;;;;;;3.10;86.13;100709.59;5065730;28;20118;-45
2022/12/09 08:44:14;;;;;;;44.97;27.30;;;;;;;3.08;86.14;100711.13;5060313;28;20049;-47
2022/12/09 08:46:43;;;;;;;46.40;28.27;;;;;;;3.06;86.42;100705.13;5066211;28;20063;-46
2022/12/09 08:49:09;;;;;;;47.72;28.50;;;;;;;3.03;86.37;100708.34;5064899;28;20051;-44
2022/12/09 08:51:35;;;;;;;47.85;28.55;;;;;;;2.92;85.74;100709.44;5069042;28;20417;-43
2022/12/09 08:54:02;;;;;;;44.75;28.00;;;;;;;2.88;86.47;100708.38;5066345;28;20115;-46
2022/12/09 08:56:27;;;;;;;46.25;27.58;;;;;;;2.85;86.50;100714.94;5068244;28;20422;-44
2022/12/09 08:58:54;;;;;;;46.58;26.73;;;;;;;2.81;86.53;100715.56;5067203;28;20025;-44
2022/12/09 09:01:22;;;;;;;40.50;25.27;;;;;;;2.82;86.35;100719.84;5067927;28;20016;-44
2022/12/09 09:03:48;;;;;;;40.15;26.13;;;;;;;2.87;86.65;100719.31;5062884;28;20024;-46
2022/12/09 09:06:15;;;;;;;41.72;25.95;;;;;;;2.85;86.76;100717.47;5065958;28;20036;-46
2022/12/09 09:08:41;;;;;;;42.42;27.25;;;;;;;2.90;86.64;100721.16;5061642;28;20037;-47
2022/12/09 09:11:12;;;;;;;45.70;27.02;;;;;;;2.86;86.61;100715.03;5063425;28;20031;-46
2022/12/09 09:13:39;;;;;;;46.10;27.00;;;;;;;2.83;86.60;100721.59;5064732;28;20052;-49
2022/12/09 09:16:18;;;;;;;44.08;27.13;;;;;;;2.88;86.67;100723.59;5067633;28;20028;-44
2022/12/09 09:18:44;;;;;;;45.78;28.05;;;;;;;2.83;86.50;100725.00;5066899;28;20370;-47
2022/12/09 09:21:12;;;;;;;45.75;27.95;;;;;;;2.89;86.78;100729.56;5066926;28;20043;-48
2022/12/09 09:23:38;;;;;;;46.17;28.42;;;;;;;2.83;86.62;100726.69;5064045;28;20465;-46
2022/12/09 09:26:03;;;;;;;44.97;27.98;;;;;;;2.76;87.24;100732.19;5066450;28;20203;-49
2022/12/09 09:28:28;;;;;;;45.10;27.65;;;;;;;2.72;87.14;100736.22;5065656;28;20064;-44
2022/12/09 09:31:01;;;;;;;47.38;27.65;;;;;;;2.76;87.63;100739.81;5065325;28;20036;-48
2022/12/09 09:33:27;;;;;;;46.33;27.77;;;;;;;2.76;87.28;100739.81;5061371;28;20028;-46
2022/12/09 09:35:57;;;;;;;41.15;26.23;;;;;;;2.80;87.33;100737.56;5062955;28;20055;-47
2022/12/09 09:38:24;;;;;;;43.88;26.08;;;;;;;2.79;87.24;100740.88;5063048;28;20462;-45
2022/12/09 09:40:50;;;;;;;43.28;26.85;;;;;;;2.73;87.19;100742.16;5067252;28;20449;-51
2022/12/09 09:43:19;;;;;;;47.65;27.23;;;;;;;2.68;87.47;100742.81;5062795;28;20052;-47
2022/12/09 09:45:45;;;;;;;46.72;27.50;;;;;;;2.68;87.73;100740.25;5062424;28;20032;-48
2022/12/09 09:48:15;;;;;;;46.00;26.40;;;;;;;2.69;87.51;100739.47;5062583;28;20406;-44
2022/12/09 09:50:46;;;;;;;43.88;27.27;;;;;;;2.68;87.62;100732.66;5064182;28;20032;-45
2022/12/09 09:53:32;;;;;;;45.95;28.05;;;;;;;2.75;87.98;100740.59;5062879;28;20618;-49
2022/12/09 09:56:10;;;;;;;46.40;27.55;;;;;;;2.77;87.68;100742.44;5065222;28;20223;-45
2022/12/09 09:58:43;;;;;;;43.42;26.55;;;;;;;2.75;87.17;100740.59;5062578;28;20048;-48
2022/12/09 10:01:12;;;;;;;48.30;27.95;;;;;;;2.73;86.62;100734.53;5066780;28;20024;-48
2022/12/09 10:03:52;;;;;;;49.05;28.70;;;;;;;2.74;87.21;100734.66;5063848;28;20024;-44
2022/12/09 10:06:33;;;;;;;47.08;28.00;;;;;;;2.78;86.99;100735.69;5062296;28;20395;-48
2022/12/09 10:09:18;;;;;;;47.80;26.98;;;;;;;2.84;86.91;100736.03;5064218;28;20032;-46
2022/12/09 10:12:11;;;;;;;49.05;28.35;;;;;;;2.86;86.75;100729.41;5065158;28;20389;-45
2022/12/09 10:14:48;;;;;;;45.55;27.25;;;;;;;2.78;86.30;100731.50;5062361;28;20427;-44
2022/12/09 10:17:24;;;;;;;45.80;27.42;;;;;;;2.75;86.41;100726.25;5061569;28;20044;-46
2022/12/09 10:20:04;;;;;;;47.67;27.65;;;;;;;2.71;86.45;100728.53;5063685;28;20028;-46
2022/12/09 10:22:56;;;;;;;45.28;27.13;;;;;;;2.75;86.35;100733.00;5060832;28;20081;-46
2022/12/09 10:25:24;;;;;;;50.03;27.38;;;;;;;2.74;85.80;100737.19;5061198;28;20048;-44
2022/12/09 10:28:05;;;;;;;43.15;26.38;;;;;;;2.74;86.09;100727.03;5062827;28;20107;-50
2022/12/09 10:30:31;;;;;;;45.83;28.15;;;;;;;2.75;86.00;100727.91;5060046;28;20415;-55
2022/12/09 10:32:57;;;;;;;47.90;28.13;;;;;;;2.72;85.80;100731.13;5062541;28;20028;-46
2022/12/09 10:35:25;;;;;;;48.17;27.95;;;;;;;2.67;85.62;100727.50;5059924;28;20037;-53
2022/12/09 10:37:53;;;;;;;46.35;26.83;;;;;;;2.61;85.56;100728.00;5062940;28;20090;-51
2022/12/09 10:40:42;;;;;;;46.08;27.08;;;;;;;2.71;86.49;100726.84;5062650;28;20449;-45
2022/12/09 10:43:40;;;;;;;50.03;27.85;;;;;;;2.72;86.89;100725.19;5063466;28;20449;-55
2022/12/09 10:46:09;;;;;;;47.00;26.90;;;;;;;2.70;86.54;100722.56;5063467;28;20051;-52
2022/12/09 10:48:45;;;;;;;49.65;28.45;;;;;;;2.81;86.44;100725.72;5066702;28;20032;-54
2022/12/09 10:51:27;;;;;;;54.35;29.20;;;;;;;2.86;86.46;100719.25;5065293;28;20111;-46
2022/12/09 10:53:59;;;;;;;47.85;28.70;;;;;;;2.92;86.79;100720.47;5063790;28;20047;-45
2022/12/09 10:56:28;;;;;;;51.20;29.25;;;;;;;2.96;86.62;100718.94;5064026;28;20572;-44
2022/12/09 10:59:23;;;;;;;50.20;27.63;;;;;;;3.06;87.09;100713.59;5066805;28;20032;-45
2022/12/09 11:01:54;;;;;;;47.72;27.70;;;;;;;3.10;86.04;100717.19;5068530;28;20056;-45
2022/12/09 11:04:33;;;;;;;46.72;28.60;;;;;;;3.15;86.12;100723.38;5064713;28;20032;-48
2022/12/09 11:07:13;;;;;;;48.58;28.30;;;;;;;3.12;85.09;100715.63;5067832;28;20052;-45
2022/12/09 11:09:42;;;;;;;46.45;27.83;;;;;;;3.09;85.39;100718.84;5066257;28;20026;-45
2022/12/09 11:12:25;;;;;;;46.22;28.15;;;;;;;3.19;86.13;100713.47;5069236;28;20493;-45
2022/12/09 11:14:56;;;;;;;46.83;27.40;;;;;;;3.12;85.62;100713.94;5065571;28;20028;-43
2022/12/09 11:17:33;;;;;;;45.97;27.15;;;;;;;3.18;85.69;100713.41;5065105;28;20063;-45
2022/12/09 11:20:04;;;;;;;51.75;27.30;;;;;;;3.25;85.94;100714.63;5063748;28;20540;-44
2022/12/09 11:22:38;;;;;;;44.70;26.45;;;;;;;3.20;84.34;100715.22;5065541;28;20512;-46
2022/12/09 11:25:26;;;;;;;45.70;25.65;;;;;;;3.23;84.79;100712.88;5064194;28;20389;-47
2022/12/09 11:28:13;;;;;;;43.42;25.63;;;;;;;3.14;83.93;100708.94;5064333;28;20050;-45